Time;durP1;ratioP1;P1;durP2;ratioP2;P2;SDS_P1;SDS_P2;PMS_P1;PMS_P2;Temp;Humidity;BMP_temperature;BMP_pressure;BME280_temperature;BME280_humidity;BME280_pressure;Samples;Min_cycle;Max_cycle;Signal;HPM_P1;HPM_P2
2022/07/28 00:01:28;;;;;;;16.00;12.95;;;19.90;99.90;;;;;;5017640;28;20050;-74
2022/07/28 00:03:56;;;;;;;17.08;14.50;;;19.80;99.90;;;;;;5034924;28;20038;-74
2022/07/28 00:06:23;;;;;;;16.40;13.23;;;19.90;99.90;;;;;;5035560;28;20045;-75
2022/07/28 00:08:50;;;;;;;17.30;13.45;;;19.90;99.90;;;;;;5035718;28;20095;-74
2022/07/28 00:11:17;;;;;;;17.45;13.43;;;19.80;99.90;;;;;;5043782;28;20044;-75
2022/07/28 00:13:46;;;;;;;16.48;12.60;;;19.80;99.90;;;;;;5034734;28;20563;-75
2022/07/28 00:16:13;;;;;;;18.17;13.15;;;19.80;99.90;;;;;;5034890;28;20049;-73
2022/07/28 00:18:40;;;;;;;15.23;11.88;;;19.80;99.90;;;;;;5037764;28;20068;-74
2022/07/28 00:21:08;;;;;;;15.18;13.07;;;19.80;99.90;;;;;;5054840;28;20075;-75
2022/07/28 00:23:35;;;;;;;16.80;13.20;;;19.80;99.90;;;;;;5054748;28;20491;-75
2022/07/28 00:26:02;;;;;;;16.50;13.85;;;19.80;99.90;;;;;;5042696;28;20049;-76
2022/07/28 00:28:29;;;;;;;18.77;16.48;;;19.80;99.90;;;;;;5034825;28;20103;-75
2022/07/28 00:30:58;;;;;;;22.70;18.23;;;19.70;99.90;;;;;;5034759;28;20092;-75
2022/07/28 00:33:25;;;;;;;20.00;17.98;;;19.70;99.90;;;;;;5039610;28;20488;-75
2022/07/28 00:35:53;;;;;;;22.15;19.45;;;19.70;99.90;;;;;;5061990;28;20114;-75
2022/07/28 00:38:20;;;;;;;23.13;20.05;;;19.70;99.90;;;;;;5076997;28;20028;-75
2022/07/28 00:43:32;;;;;;;25.88;23.00;;;19.70;99.90;;;;;;5075714;28;20097;-74
2022/07/28 00:46:00;;;;;;;24.65;22.13;;;19.70;99.90;;;;;;5077749;28;20047;-74
2022/07/28 00:48:28;;;;;;;27.23;23.55;;;19.60;99.90;;;;;;5054438;28;20049;-74
2022/07/28 00:50:55;;;;;;;25.08;22.48;;;19.60;99.90;;;;;;5050735;28;20087;-74
2022/07/28 00:53:23;;;;;;;23.73;21.33;;;19.60;99.90;;;;;;5054814;28;20037;-75
2022/07/28 00:55:50;;;;;;;24.90;22.25;;;19.60;99.90;;;;;;5057162;28;20044;-74
2022/07/28 00:58:18;;;;;;;24.67;22.15;;;19.70;99.90;;;;;;5057430;28;20455;-76
2022/07/28 01:00:45;;;;;;;22.45;19.20;;;19.60;99.90;;;;;;5036018;28;20091;-75
2022/07/28 01:03:14;;;;;;;20.58;18.48;;;19.60;99.90;;;;;;5033775;28;20049;-74
2022/07/28 01:05:52;;;;;;;20.13;18.02;;;19.60;99.90;;;;;;5035605;28;20488;-73
2022/07/28 01:08:28;;;;;;;20.42;18.25;;;19.60;99.90;;;;;;5033872;28;20463;-75
2022/07/28 01:11:04;;;;;;;20.15;18.05;;;19.60;99.90;;;;;;5016025;28;20103;-75
2022/07/28 01:13:39;;;;;;;23.00;19.45;;;19.60;99.90;;;;;;5063501;28;20108;-73
2022/07/28 01:16:08;;;;;;;21.35;18.33;;;19.60;99.90;;;;;;5062303;28;20053;-75
2022/07/28 01:18:43;;;;;;;21.83;19.60;;;19.50;99.90;;;;;;5053588;28;20041;-74
2022/07/28 01:21:13;;;;;;;24.15;21.50;;;19.50;99.90;;;;;;5045242;28;20034;-74
2022/07/28 01:23:58;;;;;;;25.60;22.80;;;19.60;99.90;;;;;;5033496;28;20046;-73
2022/07/28 01:26:53;;;;;;;23.85;20.67;;;19.70;99.90;;;;;;5033825;28;20073;-75
2022/07/28 01:29:32;;;;;;;24.92;20.92;;;19.70;99.90;;;;;;5033891;28;20053;-74
2022/07/28 01:32:05;;;;;;;25.65;22.83;;;19.80;99.90;;;;;;5038226;28;20496;-75
2022/07/28 01:34:38;;;;;;;25.42;22.67;;;19.70;99.90;;;;;;5052974;28;20103;-74
2022/07/28 01:37:12;;;;;;;24.77;21.70;;;19.70;99.90;;;;;;5039510;28;20045;-74
2022/07/28 01:39:42;;;;;;;24.85;21.83;;;19.80;99.90;;;;;;5034314;28;20052;-74
2022/07/28 01:42:12;;;;;;;26.23;23.50;;;19.80;99.90;;;;;;5033918;28;20046;-74
2022/07/28 01:44:44;;;;;;;23.40;21.05;;;19.90;99.90;;;;;;5033370;28;20045;-75
2022/07/28 01:47:15;;;;;;;23.95;21.45;;;19.90;99.90;;;;;;5033685;28;20084;-75
2022/07/28 01:49:45;;;;;;;24.25;21.75;;;20.00;99.90;;;;;;5037353;28;20404;-74
2022/07/28 01:52:14;;;;;;;25.45;22.55;;;20.00;99.90;;;;;;5037198;28;20366;-74
2022/07/28 01:54:44;;;;;;;25.13;22.60;;;19.90;99.90;;;;;;5044033;28;20037;-74
2022/07/28 01:57:13;;;;;;;29.42;24.40;;;19.90;99.90;;;;;;5039253;28;20476;-74
2022/07/28 01:59:42;;;;;;;24.65;21.35;;;19.90;99.90;;;;;;5040808;28;20072;-75
2022/07/28 02:02:11;;;;;;;23.20;20.85;;;19.90;99.90;;;;;;5055616;28;20047;-75
2022/07/28 02:04:41;;;;;;;24.10;21.70;;;19.90;99.90;;;;;;5057084;28;20044;-75
2022/07/28 02:07:10;;;;;;;25.58;20.10;;;19.90;99.90;;;;;;5057325;28;20044;-74
2022/07/28 02:09:39;;;;;;;22.88;20.30;;;19.90;99.90;;;;;;5057135;28;20045;-76
2022/07/28 02:12:09;;;;;;;24.13;21.63;;;19.90;99.90;;;;;;5018649;28;20042;-75
2022/07/28 02:14:38;;;;;;;24.65;21.92;;;19.80;99.90;;;;;;5017765;28;20049;-74
2022/07/28 02:17:11;;;;;;;24.55;22.15;;;19.80;99.90;;;;;;5033134;28;20038;-74
2022/07/28 02:19:42;;;;;;;22.85;20.40;;;19.80;99.90;;;;;;5065465;28;20063;-73
2022/07/28 02:22:11;;;;;;;21.75;19.60;;;19.80;99.90;;;;;;5081578;28;20036;-74
2022/07/28 02:24:39;;;;;;;24.13;20.38;;;19.70;99.90;;;;;;5080806;28;20043;-75
2022/07/28 02:27:11;;;;;;;23.30;20.85;;;19.70;99.90;;;;;;5074421;28;20021;-75
2022/07/28 02:29:43;;;;;;;22.98;20.35;;;19.70;99.90;;;;;;5063847;28;20021;-74
2022/07/28 02:32:17;;;;;;;22.77;20.23;;;19.80;99.90;;;;;;5058879;28;20064;-76
2022/07/28 02:34:47;;;;;;;19.30;17.30;;;19.80;99.90;;;;;;5037475;28;20045;-74
2022/07/28 02:37:16;;;;;;;21.08;18.08;;;19.80;99.90;;;;;;5037118;28;20096;-74
2022/07/28 02:39:46;;;;;;;20.05;18.02;;;19.80;99.90;;;;;;5038570;28;20065;-74
2022/07/28 02:42:18;;;;;;;19.35;17.15;;;19.80;99.90;;;;;;5037757;28;20037;-74
2022/07/28 02:44:53;;;;;;;19.90;17.65;;;19.90;99.90;;;;;;5036305;28;20068;-73
2022/07/28 02:47:25;;;;;;;21.08;18.88;;;19.90;99.90;;;;;;5036619;28;20049;-74
2022/07/28 02:49:56;;;;;;;22.60;20.25;;;19.90;99.90;;;;;;5036594;28;20045;-73
2022/07/28 02:52:25;;;;;;;24.60;20.90;;;19.90;99.90;;;;;;5036536;28;20033;-73
2022/07/28 02:54:53;;;;;;;24.80;20.63;;;20.00;99.90;;;;;;5038868;28;20046;-74
2022/07/28 02:57:23;;;;;;;26.65;21.42;;;20.00;99.90;;;;;;5037648;28;20144;-74
2022/07/28 02:59:51;;;;;;;25.77;22.48;;;20.00;99.90;;;;;;5036455;28;20073;-76
2022/07/28 03:02:20;;;;;;;29.27;24.67;;;20.00;99.90;;;;;;5036510;28;20045;-75
2022/07/28 03:05:00;;;;;;;29.02;24.70;;;20.00;99.90;;;;;;5051406;28;20041;-74
2022/07/28 03:07:31;;;;;;;34.85;27.48;;;19.90;99.90;;;;;;5041951;28;20107;-74
2022/07/28 03:09:59;;;;;;;37.30;28.15;;;20.00;99.90;;;;;;5040341;28;20125;-75
2022/07/28 03:12:27;;;;;;;39.95;28.73;;;20.00;99.90;;;;;;5036526;28;20069;-76
2022/07/28 03:14:54;;;;;;;39.50;28.83;;;20.00;99.90;;;;;;5035917;28;20100;-76
2022/07/28 03:17:22;;;;;;;41.60;31.02;;;20.00;99.90;;;;;;5036967;28;20065;-74
2022/07/28 03:19:49;;;;;;;51.10;33.50;;;20.00;99.90;;;;;;5050002;28;20492;-74
2022/07/28 03:22:16;;;;;;;47.78;32.60;;;20.00;99.90;;;;;;5056096;28;20554;-74
2022/07/28 03:24:49;;;;;;;52.13;33.90;;;19.90;99.90;;;;;;5055026;28;20557;-75
2022/07/28 03:27:21;;;;;;;44.85;32.47;;;19.90;99.90;;;;;;5039672;28;20045;-74
2022/07/28 03:29:52;;;;;;;47.78;32.70;;;20.00;99.90;;;;;;5036288;28;20050;-75
2022/07/28 03:32:21;;;;;;;41.42;31.02;;;20.00;99.90;;;;;;5048141;28;20038;-75
2022/07/28 03:34:51;;;;;;;44.53;30.77;;;19.90;99.90;;;;;;5053373;28;20068;-74
2022/07/28 03:37:25;;;;;;;43.13;32.13;;;19.90;99.90;;;;;;5048730;28;20401;-74
2022/07/28 03:39:57;;;;;;;45.92;30.20;;;19.90;99.90;;;;;;5038700;28;20076;-75
2022/07/28 03:42:25;;;;;;;45.03;31.52;;;19.90;99.90;;;;;;5053115;28;20128;-75
2022/07/28 03:44:53;;;;;;;46.05;31.38;;;20.00;99.90;;;;;;5041733;28;20050;-74
2022/07/28 03:47:22;;;;;;;56.90;36.00;;;19.90;99.90;;;;;;5035550;28;20076;-75
2022/07/28 03:49:49;;;;;;;54.95;37.28;;;19.90;99.90;;;;;;5035670;28;20064;-75
2022/07/28 03:52:17;;;;;;;64.03;39.17;;;19.90;99.90;;;;;;5035792;28;20071;-76
2022/07/28 03:54:45;;;;;;;75.82;45.67;;;19.90;99.90;;;;;;5037083;28;20041;-74
2022/07/28 03:57:14;;;;;;;76.53;45.92;;;19.90;99.90;;;;;;5036483;28;20049;-75
2022/07/28 03:59:41;;;;;;;65.35;41.17;;;19.90;99.90;;;;;;5036238;28;20045;-74
2022/07/28 04:02:08;;;;;;;61.63;40.90;;;19.90;99.90;;;;;;5035323;28;20041;-75
2022/07/28 04:04:36;;;;;;;59.50;40.38;;;19.90;99.90;;;;;;5035135;28;20045;-74
2022/07/28 04:07:03;;;;;;;58.15;41.25;;;20.00;99.90;;;;;;5035196;28;20116;-75
2022/07/28 04:09:30;;;;;;;65.53;43.95;;;20.00;99.90;;;;;;5035416;28;20041;-74
2022/07/28 04:11:57;;;;;;;56.45;40.65;;;20.00;99.90;;;;;;5050882;28;20438;-74
2022/07/28 04:14:26;;;;;;;56.30;41.00;;;20.00;99.90;;;;;;5055412;28;20045;-74
2022/07/28 04:16:53;;;;;;;71.00;46.72;;;20.00;99.90;;;;;;5044452;28;20064;-75
2022/07/28 04:19:20;;;;;;;71.75;48.25;;;20.00;99.90;;;;;;5035968;28;20041;-75
2022/07/28 04:21:48;;;;;;;65.28;43.13;;;20.00;99.90;;;;;;5048141;28;20045;-74
2022/07/28 04:24:15;;;;;;;68.38;44.20;;;20.00;99.90;;;;;;5055407;28;20110;-75
2022/07/28 04:26:42;;;;;;;71.65;45.50;;;20.00;99.90;;;;;;5039131;28;20129;-76
2022/07/28 04:29:10;;;;;;;66.63;45.10;;;20.00;99.90;;;;;;5017267;28;20046;-75
2022/07/28 04:31:39;;;;;;;71.40;45.75;;;20.10;99.90;;;;;;5036468;28;20049;-76
2022/07/28 04:34:06;;;;;;;74.20;45.60;;;20.10;99.90;;;;;;5046109;28;20068;-74
2022/07/28 04:36:40;;;;;;;71.63;45.17;;;20.10;99.90;;;;;;5048852;28;20061;-75
2022/07/28 04:39:09;;;;;;;72.78;46.72;;;20.10;99.90;;;;;;5035305;28;20053;-75
2022/07/28 04:41:37;;;;;;;78.88;46.40;;;20.00;99.90;;;;;;5050014;28;20504;-74
2022/07/28 04:44:04;;;;;;;80.40;48.55;;;20.10;99.90;;;;;;5054430;28;20119;-74
2022/07/28 04:46:33;;;;;;;79.07;48.40;;;20.10;99.90;;;;;;5053431;28;20159;-73
2022/07/28 04:49:02;;;;;;;77.75;46.13;;;20.10;99.90;;;;;;5014473;28;20175;-75
2022/07/28 04:51:30;;;;;;;77.20;44.03;;;20.10;99.90;;;;;;5014518;28;20053;-75
2022/07/28 04:53:57;;;;;;;74.20;44.40;;;20.10;99.90;;;;;;5016429;28;20046;-73
2022/07/28 04:56:25;;;;;;;75.13;45.45;;;20.10;99.90;;;;;;5056086;28;20049;-74
2022/07/28 04:58:53;;;;;;;74.78;44.50;;;20.00;99.90;;;;;;5034734;28;20077;-74
2022/07/28 05:01:20;;;;;;;80.70;45.97;;;20.00;99.90;;;;;;5034132;28;20045;-74
2022/07/28 05:03:47;;;;;;;74.18;44.95;;;20.00;99.90;;;;;;5034741;28;20048;-75
2022/07/28 05:06:17;;;;;;;75.50;45.28;;;20.10;99.90;;;;;;5035626;28;20144;-75
2022/07/28 05:08:44;;;;;;;83.35;45.67;;;20.10;99.90;;;;;;5035105;28;20119;-75
2022/07/28 05:11:11;;;;;;;84.57;45.88;;;20.20;99.90;;;;;;5038881;28;20045;-75
2022/07/28 05:13:39;;;;;;;82.55;46.58;;;20.20;99.90;;;;;;5014833;28;20088;-76
2022/07/28 05:16:06;;;;;;;80.63;49.17;;;20.40;99.90;;;;;;5015423;28;20049;-74
2022/07/28 05:18:34;;;;;;;81.30;48.03;;;20.50;99.90;;;;;;5016154;28;20485;-75
2022/07/28 05:21:02;;;;;;;81.20;48.72;;;20.50;99.90;;;;;;5015282;28;20085;-75
2022/07/28 05:23:30;;;;;;;136.18;54.90;;;20.60;99.90;;;;;;5015047;28;20038;-74
2022/07/28 05:25:57;;;;;;;232.45;59.15;;;20.60;99.90;;;;;;5028144;28;20126;-74
2022/07/28 05:28:25;;;;;;;85.50;53.55;;;20.70;99.90;;;;;;5051399;28;20132;-75
2022/07/28 05:30:52;;;;;;;97.97;58.83;;;20.70;99.90;;;;;;5054355;28;20040;-74
2022/07/28 05:33:20;;;;;;;97.20;57.58;;;20.80;99.90;;;;;;5054046;28;20034;-75
2022/07/28 05:35:53;;;;;;;96.63;58.42;;;20.70;99.90;;;;;;5053779;28;20064;-75
2022/07/28 05:38:20;;;;;;;99.43;58.75;;;20.80;99.90;;;;;;5053643;28;20508;-74
2022/07/28 05:40:49;;;;;;;93.72;57.58;;;20.80;99.90;;;;;;5049864;28;20100;-75
2022/07/28 05:43:17;;;;;;;113.38;60.47;;;20.90;99.90;;;;;;5055438;28;20543;-73
2022/07/28 05:45:44;;;;;;;93.90;59.65;;;20.80;99.90;;;;;;5035699;28;20505;-73
2022/07/28 05:48:11;;;;;;;98.60;56.28;;;20.80;99.90;;;;;;5035807;28;20076;-74
2022/07/28 05:50:39;;;;;;;96.00;58.20;;;20.90;99.90;;;;;;5055125;28;20045;-74
2022/07/28 05:53:06;;;;;;;97.25;56.92;;;20.90;99.90;;;;;;5068997;28;20025;-73
2022/07/28 05:55:33;;;;;;;106.38;67.07;;;21.00;99.90;;;;;;5057673;28;20045;-73
2022/07/28 05:58:02;;;;;;;99.88;58.95;;;21.00;99.90;;;;;;5037484;28;20045;-74
2022/07/28 06:00:31;;;;;;;102.57;61.03;;;21.00;99.90;;;;;;5035143;28;20096;-73
2022/07/28 06:03:00;;;;;;;98.38;61.10;;;21.10;99.90;;;;;;5015991;28;20449;-73
2022/07/28 06:05:29;;;;;;;98.70;62.88;;;21.20;99.90;;;;;;5037493;28;20045;-74
2022/07/28 06:07:56;;;;;;;96.25;58.83;;;21.40;99.90;;;;;;5053499;28;20123;-74
2022/07/28 06:10:25;;;;;;;80.32;51.75;;;21.60;99.90;;;;;;5035396;28;20212;-75
2022/07/28 06:12:53;;;;;;;79.78;52.78;;;21.70;99.90;;;;;;5034395;28;20046;-75
2022/07/28 06:15:24;;;;;;;82.68;52.45;;;21.70;99.90;;;;;;5015992;28;20500;-74
2022/07/28 06:17:54;;;;;;;69.50;49.88;;;21.80;99.90;;;;;;5033860;28;20082;-74
2022/07/28 06:20:22;;;;;;;79.85;53.03;;;21.80;99.90;;;;;;5049990;28;20051;-74
2022/07/28 06:22:51;;;;;;;79.70;53.33;;;21.90;99.90;;;;;;5050100;28;20071;-74
2022/07/28 06:25:20;;;;;;;87.65;55.40;;;22.00;99.90;;;;;;5020158;28;20068;-73
2022/07/28 06:27:48;;;;;;;91.72;58.47;;;22.10;99.90;;;;;;5063213;28;20049;-73
2022/07/28 06:30:16;;;;;;;82.20;53.60;;;22.10;99.90;;;;;;5038798;28;20407;-74
2022/07/28 06:32:45;;;;;;;84.55;54.92;;;22.20;99.90;;;;;;5016644;28;20359;-73
2022/07/28 06:35:15;;;;;;;83.88;54.55;;;22.30;99.90;;;;;;5043312;28;20056;-74
2022/07/28 06:37:42;;;;;;;97.75;63.33;;;22.30;99.90;;;;;;5054270;28;20037;-75
2022/07/28 06:40:11;;;;;;;84.18;54.88;;;22.30;99.90;;;;;;5051735;28;20619;-75
2022/07/28 06:42:39;;;;;;;79.47;51.50;;;22.30;99.90;;;;;;5043120;28;20067;-74
2022/07/28 06:45:07;;;;;;;79.50;50.28;;;22.30;99.90;;;;;;5045834;28;20068;-74
2022/07/28 06:47:35;;;;;;;82.28;53.30;;;22.30;99.90;;;;;;5055073;28;20121;-75
2022/07/28 06:50:05;;;;;;;85.78;54.53;;;22.40;99.90;;;;;;5048889;28;20408;-74
2022/07/28 06:52:33;;;;;;;94.60;56.13;;;22.50;99.90;;;;;;5040898;28;20045;-74
2022/07/28 06:55:00;;;;;;;81.78;52.42;;;22.60;99.90;;;;;;5041350;28;20491;-75
2022/07/28 06:57:28;;;;;;;79.28;51.72;;;22.80;99.90;;;;;;5048628;28;20041;-74
2022/07/28 06:59:56;;;;;;;74.18;48.80;;;23.00;99.90;;;;;;5058763;28;20040;-75
2022/07/28 07:02:23;;;;;;;75.85;48.10;;;23.10;99.90;;;;;;5039657;28;20049;-74
2022/07/28 07:04:51;;;;;;;73.90;47.45;;;23.20;99.90;;;;;;5051473;28;20041;-75
2022/07/28 07:07:21;;;;;;;64.85;43.70;;;23.30;99.90;;;;;;5056600;28;20133;-75
2022/07/28 07:09:48;;;;;;;70.20;45.85;;;23.30;99.90;;;;;;5055870;28;20056;-75
2022/07/28 07:12:16;;;;;;;72.07;45.33;;;23.40;99.90;;;;;;5054112;28;20056;-75
2022/07/28 07:14:43;;;;;;;72.20;46.90;;;23.40;99.90;;;;;;5056293;28;20048;-75
2022/07/28 07:17:10;;;;;;;70.55;48.10;;;23.60;99.90;;;;;;5056768;28;20079;-74
2022/07/28 07:19:37;;;;;;;84.03;52.00;;;23.60;99.90;;;;;;5054305;28;20103;-74
2022/07/28 07:22:05;;;;;;;77.40;53.55;;;23.70;99.90;;;;;;5036246;28;20121;-74
2022/07/28 07:24:34;;;;;;;95.88;62.30;;;23.50;99.90;;;;;;5037276;28;20087;-73
2022/07/28 07:27:01;;;;;;;85.45;59.90;;;23.20;99.90;;;;;;5040272;28;20034;-75
2022/07/28 07:29:28;;;;;;;84.53;55.15;;;23.10;99.90;;;;;;5054616;28;20041;-75
2022/07/28 07:31:57;;;;;;;84.43;56.72;;;23.10;99.90;;;;;;5050286;28;20045;-74
2022/07/28 07:34:24;;;;;;;89.22;59.28;;;23.00;99.90;;;;;;5037994;28;20049;-74
2022/07/28 07:36:51;;;;;;;92.03;61.97;;;23.20;99.90;;;;;;5000180;28;20137;-74
2022/07/28 07:39:19;;;;;;;95.38;58.67;;;23.30;99.90;;;;;;4995009;28;20141;-74
2022/07/28 07:41:47;;;;;;;92.68;56.60;;;23.90;99.90;;;;;;4994269;28;20070;-75
2022/07/28 07:44:15;;;;;;;78.38;53.03;;;24.10;99.90;;;;;;4995195;28;20046;-74
2022/07/28 07:46:42;;;;;;;79.40;53.35;;;24.20;99.90;;;;;;4996593;28;20494;-73
2022/07/28 07:49:09;;;;;;;83.97;54.97;;;24.20;99.90;;;;;;4996469;28;20560;-74
2022/07/28 07:51:36;;;;;;;86.65;59.30;;;24.50;99.90;;;;;;4995939;28;20046;-74
2022/07/28 07:54:04;;;;;;;76.45;52.15;;;24.60;99.90;;;;;;4994768;28;20051;-75
2022/07/28 07:56:31;;;;;;;81.75;52.97;;;25.20;99.90;;;;;;4994428;28;20050;-74
2022/07/28 07:59:00;;;;;;;83.22;58.70;;;25.00;99.90;;;;;;4996060;28;20124;-75
2022/07/28 08:01:27;;;;;;;81.93;54.88;;;25.40;99.90;;;;;;4996423;28;20042;-74
2022/07/28 08:03:54;;;;;;;78.32;55.00;;;25.70;99.90;;;;;;4996617;28;20042;-74
2022/07/28 08:06:21;;;;;;;71.97;50.15;;;25.40;99.90;;;;;;4996287;28;20516;-75
2022/07/28 08:08:49;;;;;;;77.70;51.13;;;25.40;99.90;;;;;;4996852;28;20418;-74
2022/07/28 08:11:16;;;;;;;72.05;51.13;;;25.40;99.90;;;;;;4998528;28;20042;-75
2022/07/28 08:13:43;;;;;;;74.20;51.60;;;25.90;99.90;;;;;;5004052;28;20064;-75
2022/07/28 08:16:12;;;;;;;76.07;51.25;;;25.80;99.90;;;;;;5003632;28;20054;-75
2022/07/28 08:18:39;;;;;;;70.28;51.08;;;26.30;99.90;;;;;;4999414;28;20448;-75
2022/07/28 08:21:06;;;;;;;78.43;50.15;;;26.60;99.90;;;;;;5015196;28;20050;-75
2022/07/28 08:23:34;;;;;;;75.57;52.33;;;26.70;99.90;;;;;;5014337;28;20489;-75
2022/07/28 08:26:02;;;;;;;74.35;52.40;;;26.40;99.90;;;;;;5014952;28;20046;-76
2022/07/28 08:28:30;;;;;;;82.80;54.58;;;26.50;99.90;;;;;;5014731;28;20038;-75
2022/07/28 08:30:57;;;;;;;77.97;56.70;;;27.00;99.90;;;;;;5015706;28;20046;-73
2022/07/28 08:33:26;;;;;;;84.15;57.47;;;27.20;99.90;;;;;;5014346;28;20092;-75
2022/07/28 08:35:53;;;;;;;90.78;63.78;;;27.60;99.90;;;;;;5025466;28;20061;-75
2022/07/28 08:38:20;;;;;;;97.68;66.05;;;27.80;99.90;;;;;;5048628;28;20071;-74
2022/07/28 08:40:50;;;;;;;96.82;62.70;;;27.80;99.90;;;;;;5040085;28;20104;-75
2022/07/28 08:43:28;;;;;;;95.53;64.65;;;27.70;99.90;;;;;;5034592;28;20081;-75
2022/07/28 08:45:57;;;;;;;95.45;63.65;;;27.60;99.90;;;;;;5035290;28;20065;-75
2022/07/28 08:48:30;;;;;;;93.03;64.53;;;27.30;99.90;;;;;;5034106;28;20045;-75
2022/07/28 08:51:02;;;;;;;99.60;66.45;;;27.50;99.90;;;;;;5034543;28;20489;-74
2022/07/28 08:53:31;;;;;;;96.78;66.50;;;27.40;99.90;;;;;;5034151;28;20076;-76
2022/07/28 08:56:03;;;;;;;96.90;65.90;;;27.40;99.90;;;;;;5034303;28;20092;-74
2022/07/28 08:58:32;;;;;;;122.93;74.53;;;27.50;99.90;;;;;;5034515;28;20516;-75
2022/07/28 09:00:59;;;;;;;100.72;68.38;;;27.80;99.90;;;;;;5034116;28;20050;-75
2022/07/28 09:03:28;;;;;;;95.45;65.72;;;28.20;99.90;;;;;;5033226;28;20377;-75
2022/07/28 09:05:56;;;;;;;92.47;64.80;;;28.50;99.90;;;;;;5034062;28;20115;-76
2022/07/28 09:08:24;;;;;;;81.32;58.50;;;28.90;99.90;;;;;;5033947;28;20493;-74
2022/07/28 09:10:52;;;;;;;82.88;56.95;;;28.80;99.90;;;;;;5032749;28;20126;-76
2022/07/28 09:13:20;;;;;;;73.15;52.83;;;28.60;99.90;;;;;;5034461;28;20045;-74
2022/07/28 09:15:48;;;;;;;70.53;51.25;;;28.00;99.90;;;;;;5034837;28;20076;-76
2022/07/28 09:18:16;;;;;;;71.22;50.28;;;27.80;99.90;;;;;;5033808;28;20148;-75
2022/07/28 09:20:45;;;;;;;71.45;49.40;;;27.80;99.90;;;;;;5014394;28;20111;-75
2022/07/28 09:23:14;;;;;;;65.38;45.80;;;27.40;99.90;;;;;;5014250;28;20061;-75
2022/07/28 09:25:41;;;;;;;66.10;45.38;;;27.40;99.90;;;;;;5014696;28;20099;-75
2022/07/28 09:28:11;;;;;;;68.18;47.05;;;27.30;99.90;;;;;;5013856;28;20070;-76
2022/07/28 09:30:40;;;;;;;64.05;44.95;;;27.60;99.90;;;;;;5014735;28;20046;-75
2022/07/28 09:33:18;;;;;;;69.22;47.45;;;28.00;99.90;;;;;;5014434;28;20046;-75
2022/07/28 09:35:51;;;;;;;63.50;45.42;;;28.40;99.90;;;;;;5062719;22;20049;-75
2022/07/28 09:38:19;;;;;;;59.33;41.67;;;28.60;99.90;;;;;;5047458;28;20387;-74
2022/07/28 09:40:59;;;;;;;60.88;42.33;;;28.70;99.90;;;;;;5073561;28;20076;-73
2022/07/28 09:43:34;;;;;;;58.70;40.22;;;28.80;99.90;;;;;;5073171;28;20040;-74
2022/07/28 09:46:09;;;;;;;56.28;40.35;;;29.20;99.90;;;;;;5073381;28;20036;-73
2022/07/28 09:48:50;;;;;;;64.30;41.05;;;28.90;99.90;;;;;;5073915;28;20052;-74
2022/07/28 09:51:19;;;;;;;47.78;33.95;;;28.90;99.90;;;;;;5073516;28;20067;-74
2022/07/28 09:53:46;;;;;;;49.00;35.35;;;28.90;99.90;;;;;;5073678;28;20108;-74
2022/07/28 09:56:14;;;;;;;46.40;34.00;;;29.20;99.90;;;;;;5073372;28;20119;-76
2022/07/28 09:58:42;;;;;;;50.75;38.30;;;29.60;99.90;;;;;;5073459;28;20090;-73
2022/07/28 10:01:12;;;;;;;51.75;36.38;;;29.80;99.90;;;;;;5073110;28;20106;-74
2022/07/28 10:03:40;;;;;;;47.35;34.85;;;30.00;99.90;;;;;;5054861;28;20052;-74
2022/07/28 10:06:08;;;;;;;42.15;34.25;;;30.40;99.90;;;;;;5073409;28;20064;-75
2022/07/28 10:08:45;;;;;;;40.75;31.60;;;30.00;99.90;;;;;;5055183;28;20044;-75
2022/07/28 10:11:15;;;;;;;43.20;33.08;;;29.30;99.90;;;;;;5073206;28;20048;-74
2022/07/28 10:13:57;;;;;;;42.70;30.95;;;29.00;99.90;;;;;;5074676;28;20063;-74
2022/07/28 10:16:25;;;;;;;46.55;30.65;;;29.10;99.90;;;;;;5078077;28;20495;-75
2022/07/28 10:18:53;;;;;;;41.20;31.45;;;29.00;99.90;;;;;;5071783;28;20040;-75
2022/07/28 10:21:22;;;;;;;41.03;31.25;;;28.80;99.90;;;;;;5056970;28;20041;-74
2022/07/28 10:23:52;;;;;;;39.53;29.73;;;28.90;99.90;;;;;;5056582;28;20045;-74
2022/07/28 10:26:24;;;;;;;39.63;30.65;;;29.00;99.90;;;;;;5038361;28;20052;-74
2022/07/28 10:28:53;;;;;;;32.03;26.58;;;29.00;99.90;;;;;;5038712;28;20121;-74
2022/07/28 10:31:29;;;;;;;32.35;24.40;;;28.80;99.90;;;;;;5056649;28;20065;-74
2022/07/28 10:33:59;;;;;;;32.00;21.80;;;28.60;99.90;;;;;;5055976;28;20049;-74
2022/07/28 10:36:27;;;;;;;28.92;19.40;;;28.50;99.90;;;;;;5056566;28;20486;-75
2022/07/28 10:39:11;;;;;;;31.13;20.20;;;28.40;99.90;;;;;;5038347;28;20037;-74
2022/07/28 10:41:43;;;;;;;34.50;21.95;;;28.00;99.90;;;;;;5056295;28;20045;-74
2022/07/28 10:44:13;;;;;;;37.80;23.75;;;28.00;99.90;;;;;;5056432;28;20037;-74
2022/07/28 10:46:43;;;;;;;35.50;24.40;;;28.00;99.90;;;;;;5057034;28;20052;-74
2022/07/28 10:49:11;;;;;;;38.00;23.65;;;27.70;99.90;;;;;;5056865;28;20055;-74
2022/07/28 10:51:42;;;;;;;38.50;24.05;;;27.60;99.90;;;;;;5039139;28;20102;-74
2022/07/28 10:54:16;;;;;;;37.42;24.33;;;27.70;99.90;;;;;;5055949;28;20040;-74
2022/07/28 10:56:50;;;;;;;42.70;26.10;;;27.80;99.90;;;;;;5056214;28;20060;-74
2022/07/28 10:59:48;;;;;;;48.17;28.23;;;27.50;99.90;;;;;;5046413;28;20112;-74
2022/07/28 11:02:45;;;;;;;40.90;25.10;;;27.80;99.90;;;;;;5060944;28;20500;-75
2022/07/28 11:05:33;;;;;;;43.90;27.05;;;27.90;99.90;;;;;;5057564;28;20064;-74
2022/07/28 11:08:02;;;;;;;42.88;26.65;;;27.70;99.90;;;;;;5038950;28;20051;-75
2022/07/28 11:10:47;;;;;;;46.38;29.10;;;27.60;99.90;;;;;;5057210;28;20056;-74
2022/07/28 11:13:34;;;;;;;45.35;28.85;;;27.20;99.90;;;;;;5056056;28;20045;-75
2022/07/28 11:16:20;;;;;;;54.92;36.97;;;27.50;99.90;;;;;;5055719;28;20033;-75
2022/07/28 11:19:03;;;;;;;;;;;28.10;99.90;;;;;;5061618;28;20072;-74
2022/07/28 11:21:30;;;;;;;41.55;27.30;;;28.50;99.90;;;;;;5075999;28;19951;-75
2022/07/28 11:23:58;;;;;;;46.15;29.13;;;28.70;99.90;;;;;;5057818;28;20048;-75
2022/07/28 11:26:36;;;;;;;39.10;26.88;;;29.10;99.90;;;;;;5056987;28;20134;-75
2022/07/28 11:29:22;;;;;;;47.92;32.95;;;28.60;99.90;;;;;;5075376;28;20097;-75
2022/07/28 11:32:02;;;;;;;46.47;30.23;;;28.00;99.90;;;;;;5075636;28;20071;-74
2022/07/28 11:35:06;;;;;;;49.70;29.35;;;27.70;99.90;;;;;;5075478;28;20441;-75
2022/07/28 11:38:09;;;;;;;40.80;28.73;;;27.80;99.90;;;;;;5075470;28;20120;-74
2022/07/28 11:40:38;;;;;;;41.13;29.48;;;27.90;99.90;;;;;;5075420;28;20045;-75
2022/07/28 11:43:39;;;;;;;48.75;30.13;;;27.80;99.90;;;;;;5074595;28;20047;-75
2022/07/28 11:46:34;;;;;;;41.05;28.67;;;28.00;99.90;;;;;;5074894;28;20418;-75
2022/07/28 11:49:26;;;;;;;40.58;26.63;;;28.20;99.90;;;;;;5075030;28;20586;-74
2022/07/28 11:52:22;;;;;;;38.60;26.30;;;28.30;99.90;;;;;;5074908;28;20420;-74
2022/07/28 11:54:55;;;;;;;53.20;39.92;;;28.60;99.90;;;;;;5056507;28;20517;-75
2022/07/28 11:57:24;;;;;;;35.95;24.77;;;28.80;99.90;;;;;;5056524;28;20056;-75
2022/07/28 12:00:05;;;;;;;32.40;23.15;;;29.00;99.90;;;;;;5074968;28;20044;-75
2022/07/28 12:02:34;;;;;;;32.45;21.33;;;28.80;99.90;;;;;;5075974;28;20045;-74
2022/07/28 12:05:08;;;;;;;31.33;21.80;;;28.70;99.90;;;;;;5056684;28;20040;-75
2022/07/28 12:07:42;;;;;;;28.58;19.95;;;28.60;99.90;;;;;;5074926;28;20131;-74
2022/07/28 12:10:30;;;;;;;28.27;21.02;;;28.70;99.90;;;;;;5074688;28;20040;-75
2022/07/28 12:13:00;;;;;;;28.67;21.15;;;28.80;99.90;;;;;;5074324;28;20458;-74
2022/07/28 12:15:29;;;;;;;44.35;23.02;;;28.80;99.90;;;;;;5074500;28;20479;-74
2022/07/28 12:17:58;;;;;;;26.70;16.77;;;29.00;99.90;;;;;;5074458;28;20420;-75
2022/07/28 12:20:30;;;;;;;21.45;16.58;;;29.10;99.90;;;;;;5055597;28;20063;-74
2022/07/28 12:22:59;;;;;;;24.55;15.93;;;29.10;99.90;;;;;;5036243;28;20099;-74
2022/07/28 12:25:27;;;;;;;36.47;16.98;;;28.90;99.90;;;;;;5036411;28;20045;-74
2022/07/28 12:27:54;;;;;;;23.05;15.85;;;29.10;99.90;;;;;;5036304;28;20136;-75
2022/07/28 12:30:24;;;;;;;22.20;16.33;;;29.10;99.90;;;;;;5054240;28;20045;-75
2022/07/28 12:32:53;;;;;;;24.60;15.57;;;29.20;99.90;;;;;;5054230;28;20408;-75
2022/07/28 12:35:22;;;;;;;21.38;16.10;;;29.40;99.90;;;;;;5035861;28;20053;-75
2022/07/28 12:37:50;;;;;;;24.42;15.60;;;29.70;99.90;;;;;;5052810;28;20098;-75
2022/07/28 12:40:18;;;;;;;22.60;14.77;;;29.80;99.90;;;;;;5053697;28;20052;-75
2022/07/28 12:42:52;;;;;;;21.33;13.65;;;30.00;99.90;;;;;;5054178;28;20068;-75
2022/07/28 12:45:19;;;;;;;18.58;14.07;;;30.10;99.90;;;;;;5054061;28;20036;-74
2022/07/28 12:47:47;;;;;;;20.55;13.82;;;30.00;99.70;;;;;;5054640;28;20048;-74